createdAt,value
2016-12-05T00:00:45.147Z,1030.1
2016-12-05T00:01:46.582Z,1030.2
2016-12-05T00:02:47.520Z,1030.1
2016-12-05T00:03:48.959Z,1030.1
2016-12-05T00:04:50.393Z,1030.2
2016-12-05T00:05:51.356Z,1030.2
2016-12-05T00:06:52.790Z,1030.2
2016-12-05T00:07:54.223Z,1030.2
2016-12-05T00:08:55.162Z,1030.1
2016-12-05T00:09:56.601Z,1030.2
2016-12-05T00:10:58.035Z,1030.2
2016-12-05T00:11:58.970Z,1030.2
2016-12-05T00:13:00.406Z,1030.1
2016-12-05T00:14:01.837Z,1030.1
2016-12-05T00:15:02.769Z,1030.1
2016-12-05T00:16:04.206Z,1030.1
2016-12-05T00:17:05.134Z,1030.1
2016-12-05T00:18:06.566Z,1030.1
2016-12-05T00:19:08.001Z,1030.1
2016-12-05T00:20:08.936Z,1030.1
2016-12-05T00:21:10.367Z,1030.1
2016-12-05T00:22:11.798Z,1030.1
2016-12-05T00:23:12.730Z,1030.1
2016-12-05T00:24:14.165Z,1030
2016-12-05T00:25:15.599Z,1030.1
2016-12-05T00:26:16.530Z,1030
2016-12-05T00:28:19.364Z,1030
2016-12-05T00:29:20.295Z,1030
2016-12-05T00:30:21.726Z,1030
2016-12-05T00:31:23.165Z,1029.9
2016-12-05T00:32:24.096Z,1030
2016-12-05T00:33:25.523Z,1029.9
2016-12-05T00:34:26.956Z,1029.9
2016-12-05T00:35:27.889Z,1029.9
2016-12-05T00:36:29.328Z,1029.9
2016-12-05T00:37:30.260Z,1029.9
2016-12-05T00:38:31.698Z,1029.9
2016-12-05T00:39:33.138Z,1029.9
2016-12-05T00:40:34.074Z,1030
2016-12-05T00:41:35.516Z,1029.9
2016-12-05T00:42:36.947Z,1030
2016-12-05T00:43:37.879Z,1029.9
2016-12-05T00:44:39.321Z,1030
2016-12-05T00:45:40.277Z,1029.9
2016-12-05T00:46:41.743Z,1029.9
2016-12-05T00:47:43.178Z,1030
2016-12-05T00:48:44.111Z,1029.9
2016-12-05T00:49:45.551Z,1030
2016-12-05T00:50:46.983Z,1029.9
2016-12-05T00:51:47.919Z,1030
2016-12-05T00:53:50.762Z,1029.9
2016-12-05T00:54:51.698Z,1030
2016-12-05T00:55:53.130Z,1029.9
2016-12-05T00:56:54.557Z,1029.9
2016-12-05T00:57:55.493Z,1029.9
2016-12-05T00:58:56.928Z,1029.9
2016-12-05T00:59:57.863Z,1029.9
2016-12-05T01:00:59.297Z,1029.9
2016-12-05T01:02:00.732Z,1029.9
2016-12-05T01:03:01.670Z,1029.9
2016-12-05T01:04:03.107Z,1029.9
2016-12-05T01:05:04.537Z,1029.9
2016-12-05T01:06:05.469Z,1030
2016-12-05T01:07:06.911Z,1030
2016-12-05T01:08:07.839Z,1030
2016-12-05T01:09:09.286Z,1030.1
2016-12-05T01:10:10.721Z,1030.1
2016-12-05T01:11:11.649Z,1030.1
2016-12-05T01:12:13.242Z,1030
2016-12-05T01:13:14.171Z,1030.1
2016-12-05T01:15:17.014Z,1030.1
2016-12-05T01:16:17.945Z,1030.1
2016-12-05T01:17:19.380Z,1030
2016-12-05T01:18:20.335Z,1030.1
2016-12-05T01:19:21.767Z,1030
2016-12-05T01:20:23.205Z,1030
2016-12-05T01:21:24.128Z,1030
2016-12-05T01:22:25.558Z,1030
2016-12-05T01:23:26.989Z,1030
2016-12-05T01:24:27.926Z,1030
2016-12-05T01:25:29.359Z,1030
2016-12-05T01:26:30.792Z,1030
2016-12-05T01:28:33.126Z,1030
2016-12-05T01:29:34.563Z,1030
2016-12-05T01:30:35.493Z,1030
2016-12-05T01:31:36.926Z,1030
2016-12-05T01:32:37.854Z,1030
2016-12-05T01:33:39.290Z,1030
2016-12-05T01:34:40.753Z,1030
2016-12-05T01:35:41.688Z,1029.9
2016-12-05T01:36:43.118Z,1029.9
2016-12-05T01:37:44.553Z,1029.9
2016-12-05T01:38:45.485Z,1030
2016-12-05T01:39:46.928Z,1029.9
2016-12-05T01:40:47.859Z,1029.8
2016-12-05T01:41:49.293Z,1029.8
2016-12-05T01:43:51.630Z,1029.8
2016-12-05T01:44:52.935Z,1029.8
2016-12-05T01:45:54.364Z,1029.8
2016-12-05T01:46:55.295Z,1029.8
2016-12-05T01:47:56.726Z,1029.8
2016-12-05T01:48:58.162Z,1029.8
2016-12-05T01:49:59.088Z,1029.8
2016-12-05T01:51:00.516Z,1029.8
2016-12-05T01:52:01.950Z,1029.9
2016-12-05T01:53:02.882Z,1029.8
2016-12-05T01:54:04.314Z,1029.8
2016-12-05T01:55:05.249Z,1029.8
2016-12-05T01:56:06.704Z,1029.8
2016-12-05T01:57:08.138Z,1029.7
2016-12-05T01:58:09.079Z,1029.7
2016-12-05T01:59:10.513Z,1029.8
2016-12-05T02:00:11.951Z,1029.7
2016-12-05T02:01:12.879Z,1029.7
2016-12-05T02:03:15.205Z,1029.7
2016-12-05T02:04:16.639Z,1029.7
2016-12-05T02:05:17.866Z,1029.7
2016-12-05T02:06:19.300Z,1029.6
2016-12-05T02:07:20.229Z,1029.7
2016-12-05T02:08:21.663Z,1029.6
2016-12-05T02:09:23.097Z,1029.7
2016-12-05T02:10:24.039Z,1029.6
2016-12-05T02:11:25.476Z,1029.6
2016-12-05T02:12:26.412Z,1029.6
2016-12-05T02:13:27.843Z,1029.7
2016-12-05T02:14:29.273Z,1029.6
2016-12-05T02:15:30.199Z,1029.7
2016-12-05T02:16:31.634Z,1029.6
2016-12-05T02:18:33.961Z,1029.6
2016-12-05T02:19:35.388Z,1029.7
2016-12-05T02:20:36.324Z,1029.6
2016-12-05T02:21:37.761Z,1029.6
2016-12-05T02:22:39.192Z,1029.7
2016-12-05T02:23:40.119Z,1029.6
2016-12-05T02:24:41.684Z,1029.6
2016-12-05T02:25:42.620Z,1029.6
2016-12-05T02:26:44.055Z,1029.6
2016-12-05T02:27:44.984Z,1029.6
2016-12-05T02:28:46.421Z,1029.6
2016-12-05T02:29:47.856Z,1029.6
2016-12-05T02:30:48.792Z,1029.6
2016-12-05T02:31:50.222Z,1029.6
2016-12-05T02:32:51.154Z,1029.6
2016-12-05T02:33:52.585Z,1029.6
2016-12-05T02:34:54.019Z,1029.6
2016-12-05T02:35:54.953Z,1029.5
2016-12-05T02:37:57.790Z,1029.5
2016-12-05T02:38:58.748Z,1029.5
2016-12-05T02:40:00.183Z,1029.5
2016-12-05T02:41:01.251Z,1029.5
2016-12-05T02:42:02.685Z,1029.5
2016-12-05T02:43:03.617Z,1029.5
2016-12-05T02:44:05.049Z,1029.5
2016-12-05T02:45:05.980Z,1029.4
2016-12-05T02:46:07.410Z,1029.5
2016-12-05T02:47:08.843Z,1029.4
2016-12-05T02:48:09.777Z,1029.4
2016-12-05T02:49:11.215Z,1029.4
2016-12-05T02:50:12.650Z,1029.4
2016-12-05T02:51:13.587Z,1029.4
2016-12-05T02:52:15.020Z,1029.4
2016-12-05T02:53:15.952Z,1029.4
2016-12-05T02:54:17.391Z,1029.3
2016-12-05T02:55:18.825Z,1029.3
2016-12-05T02:56:19.757Z,1029.4
2016-12-05T02:57:21.192Z,1029.3
2016-12-05T02:58:22.126Z,1029.3
2016-12-05T02:59:23.557Z,1029.4
2016-12-05T03:00:24.988Z,1029.4
2016-12-05T03:01:25.921Z,1029.4
2016-12-05T03:02:27.359Z,1029.4
2016-12-05T03:03:28.289Z,1029.3
2016-12-05T03:04:29.721Z,1029.3
2016-12-05T03:05:31.151Z,1029.3
2016-12-05T03:06:32.087Z,1029.3
2016-12-05T03:07:33.523Z,1029.3
2016-12-05T03:08:34.453Z,1029.3
2016-12-05T03:09:35.888Z,1029.3
2016-12-05T03:10:37.322Z,1029.3
2016-12-05T03:11:38.251Z,1029.3
2016-12-05T03:12:39.688Z,1029.4
2016-12-05T03:13:40.628Z,1029.3
2016-12-05T03:14:42.062Z,1029.3
2016-12-05T03:15:43.494Z,1029.3
2016-12-05T03:16:44.421Z,1029.3
2016-12-05T03:17:45.863Z,1029.3
2016-12-05T03:18:46.795Z,1029.2
2016-12-05T03:19:48.226Z,1029.2
2016-12-05T03:20:49.659Z,1029.2
2016-12-05T03:21:50.586Z,1029.2
2016-12-05T03:22:52.026Z,1029.2
2016-12-05T03:23:52.953Z,1029.2
2016-12-05T03:24:54.389Z,1029.2
2016-12-05T03:26:56.713Z,1029.2
2016-12-05T03:27:58.140Z,1029.2
2016-12-05T03:28:59.201Z,1029.2
2016-12-05T03:30:00.632Z,1029.2
2016-12-05T03:31:01.563Z,1029.2
2016-12-05T03:32:02.992Z,1029.2
2016-12-05T03:33:04.419Z,1029.2
2016-12-05T03:34:05.346Z,1029.2
2016-12-05T03:35:06.783Z,1029.2
2016-12-05T03:36:07.710Z,1029.2
2016-12-05T03:37:09.144Z,1029.2
2016-12-05T03:38:10.571Z,1029.2
2016-12-05T03:39:11.499Z,1029.2
2016-12-05T03:40:12.933Z,1029.2
2016-12-05T03:41:13.855Z,1029.1
2016-12-05T03:42:15.286Z,1029.1
2016-12-05T03:43:16.719Z,1029.1
2016-12-05T03:44:17.649Z,1029.1
2016-12-05T03:45:19.083Z,1029.1
2016-12-05T03:46:20.014Z,1029.1
2016-12-05T03:47:21.444Z,1029.1
2016-12-05T03:48:22.868Z,1029.1
2016-12-05T03:49:23.796Z,1029.1
2016-12-05T03:51:26.124Z,1029.1
2016-12-05T03:52:27.551Z,1029.1
2016-12-05T03:53:28.982Z,1029.1
2016-12-05T03:55:31.308Z,1029
2016-12-05T03:57:33.635Z,1029.1
2016-12-05T03:58:35.065Z,1029
2016-12-05T03:59:35.999Z,1029.1
2016-12-05T04:00:37.430Z,1029
2016-12-05T04:01:38.857Z,1029
2016-12-05T04:02:39.784Z,1029
2016-12-05T04:03:41.224Z,1029
2016-12-05T04:04:42.150Z,1029.1
2016-12-05T04:05:43.577Z,1029
2016-12-05T04:06:45.013Z,1029
2016-12-05T04:07:45.944Z,1029
2016-12-05T04:08:47.373Z,1029
2016-12-05T04:09:48.297Z,1029
2016-12-05T04:10:49.727Z,1028.9
2016-12-05T04:11:50.664Z,1028.9
2016-12-05T04:12:52.094Z,1028.9
2016-12-05T04:13:53.521Z,1028.9
2016-12-05T04:14:54.446Z,1028.9
2016-12-05T04:15:55.875Z,1028.9
2016-12-05T04:16:56.810Z,1028.9
2016-12-05T04:17:58.384Z,1028.9
2016-12-05T04:18:59.317Z,1029
2016-12-05T04:20:00.913Z,1029
2016-12-05T04:21:01.855Z,1028.9
2016-12-05T04:22:03.284Z,1028.9
2016-12-05T04:23:04.210Z,1028.9
2016-12-05T04:24:05.648Z,1028.9
2016-12-05T04:26:07.974Z,1028.9
2016-12-05T04:27:09.409Z,1028.9
2016-12-05T04:28:10.350Z,1028.9
2016-12-05T04:29:11.811Z,1028.8
2016-12-05T04:30:12.741Z,1028.8
2016-12-05T04:31:14.168Z,1028.8
2016-12-05T04:32:15.598Z,1028.9
2016-12-05T04:33:16.527Z,1028.8
2016-12-05T04:34:17.986Z,1028.8
2016-12-05T04:35:18.915Z,1028.8
2016-12-05T04:36:20.343Z,1028.7
2016-12-05T04:37:21.777Z,1028.8
2016-12-05T04:38:22.700Z,1028.7
2016-12-05T04:39:24.126Z,1028.7
2016-12-05T04:40:25.053Z,1028.6
2016-12-05T04:41:26.485Z,1028.7
2016-12-05T04:43:28.811Z,1028.6
2016-12-05T04:45:31.145Z,1028.6
2016-12-05T04:46:32.579Z,1028.6
2016-12-05T04:47:34.012Z,1028.5
2016-12-05T04:48:34.937Z,1028.6
2016-12-05T04:49:36.368Z,1028.6
2016-12-05T04:50:37.302Z,1028.5
2016-12-05T04:51:38.729Z,1028.6
2016-12-05T04:52:39.657Z,1028.6
2016-12-05T04:53:41.087Z,1028.6
2016-12-05T04:54:42.513Z,1028.6
2016-12-05T04:55:43.443Z,1028.6
2016-12-05T04:57:45.767Z,1028.5
2016-12-05T04:58:47.202Z,1028.6
2016-12-05T05:00:49.536Z,1028.5
2016-12-05T05:01:50.965Z,1028.5
2016-12-05T05:02:51.889Z,1028.5
2016-12-05T05:04:54.718Z,1028.5
2016-12-05T05:05:55.650Z,1028.6
2016-12-05T05:06:57.085Z,1028.6
2016-12-05T05:07:58.012Z,1028.6
2016-12-05T05:08:59.437Z,1028.6
2016-12-05T05:10:00.505Z,1028.6
2016-12-05T05:11:01.937Z,1028.6
2016-12-05T05:12:02.869Z,1028.7
2016-12-05T05:13:04.308Z,1028.7
2016-12-05T05:14:05.741Z,1028.7
2016-12-05T05:15:06.665Z,1028.7
2016-12-05T05:16:08.099Z,1028.7
2016-12-05T05:17:09.032Z,1028.8
2016-12-05T05:19:11.863Z,1028.8
2016-12-05T05:20:12.788Z,1028.8
2016-12-05T05:21:14.223Z,1028.8
2016-12-05T05:22:15.150Z,1028.8
2016-12-05T05:23:16.585Z,1028.8
2016-12-05T05:24:17.511Z,1028.8
2016-12-05T05:25:18.939Z,1028.8
2016-12-05T05:26:20.374Z,1028.8
2016-12-05T05:27:21.305Z,1028.7
2016-12-05T05:28:22.739Z,1028.7
2016-12-05T05:29:23.674Z,1028.7
2016-12-05T05:30:25.101Z,1028.6
2016-12-05T05:31:26.031Z,1028.7
2016-12-05T05:32:27.458Z,1028.7
2016-12-05T05:33:28.891Z,1028.7
2016-12-05T05:34:29.820Z,1028.7
2016-12-05T05:35:31.249Z,1028.7
2016-12-05T05:36:32.187Z,1028.7
2016-12-05T05:37:33.642Z,1028.7
2016-12-05T05:38:34.567Z,1028.7
2016-12-05T05:39:35.990Z,1028.7
2016-12-05T05:40:37.423Z,1028.7
2016-12-05T05:41:38.353Z,1028.7
2016-12-05T05:42:39.782Z,1028.7
2016-12-05T05:43:40.708Z,1028.7
2016-12-05T05:44:42.138Z,1028.7
2016-12-05T05:45:43.065Z,1028.7
2016-12-05T05:46:44.495Z,1028.7
2016-12-05T05:47:45.925Z,1028.7
2016-12-05T05:48:46.850Z,1028.7
2016-12-05T05:49:48.283Z,1028.7
2016-12-05T05:50:49.208Z,1028.7
2016-12-05T05:51:50.646Z,1028.7
2016-12-05T05:52:51.574Z,1028.7
2016-12-05T05:53:53.015Z,1028.7
2016-12-05T05:54:53.943Z,1028.7
2016-12-05T05:55:55.379Z,1028.7
2016-12-05T05:56:56.813Z,1028.7
2016-12-05T05:57:57.739Z,1028.7
2016-12-05T05:58:59.167Z,1028.7
2016-12-05T06:00:00.093Z,1028.7
2016-12-05T06:01:01.522Z,1028.7
2016-12-05T06:02:02.460Z,1028.6
2016-12-05T06:03:03.895Z,1028.6
2016-12-05T06:04:04.823Z,1028.6
2016-12-05T06:06:07.651Z,1028.6
2016-12-05T06:07:08.586Z,1028.6
2016-12-05T06:08:10.016Z,1028.6
2016-12-05T06:09:10.940Z,1028.6
2016-12-05T06:10:12.371Z,1028.6
2016-12-05T06:11:13.802Z,1028.6
2016-12-05T06:12:14.735Z,1028.5
2016-12-05T06:13:15.817Z,1028.5
2016-12-05T06:14:17.252Z,1028.6
2016-12-05T06:15:18.183Z,1028.5
2016-12-05T06:16:19.610Z,1028.5
2016-12-05T06:17:21.052Z,1028.5
2016-12-05T06:18:21.977Z,1028.5
2016-12-05T06:19:23.411Z,1028.5
2016-12-05T06:20:24.342Z,1028.5
2016-12-05T06:21:25.773Z,1028.5
2016-12-05T06:22:26.707Z,1028.5
2016-12-05T06:23:28.142Z,1028.5
2016-12-05T06:24:29.075Z,1028.5
2016-12-05T06:25:30.704Z,1028.6
2016-12-05T06:26:31.637Z,1028.6
2016-12-05T06:27:33.075Z,1028.6
2016-12-05T06:28:34.140Z,1028.6
2016-12-05T06:30:36.468Z,1028.5
2016-12-05T06:32:38.790Z,1028.5
2016-12-05T06:33:40.217Z,1028.5
2016-12-05T06:34:41.146Z,1028.5
2016-12-05T06:35:42.576Z,1028.5
2016-12-05T06:36:44.009Z,1028.5
2016-12-05T06:37:45.070Z,1028.5
2016-12-05T06:38:45.993Z,1028.5
2016-12-05T06:39:47.417Z,1028.6
2016-12-05T06:40:48.846Z,1028.5
2016-12-05T06:41:49.773Z,1028.5
2016-12-05T06:43:52.099Z,1028.5
2016-12-05T06:44:53.530Z,1028.5
2016-12-05T06:45:54.459Z,1028.5
2016-12-05T06:46:55.896Z,1028.5
2016-12-05T06:47:56.821Z,1028.5
2016-12-05T06:48:58.245Z,1028.5
2016-12-05T06:51:00.573Z,1028.5
2016-12-05T06:52:02.002Z,1028.5
2016-12-05T06:53:02.930Z,1028.5
2016-12-05T06:54:04.363Z,1028.5
2016-12-05T06:55:05.424Z,1028.5
2016-12-05T06:56:06.856Z,1028.5
2016-12-05T06:57:07.787Z,1028.5
2016-12-05T06:58:09.213Z,1028.5
2016-12-05T06:59:10.137Z,1028.5
2016-12-05T07:00:11.564Z,1028.5
2016-12-05T07:01:12.492Z,1028.5
2016-12-05T07:02:13.945Z,1028.5
2016-12-05T07:03:15.373Z,1028.5
2016-12-05T07:04:16.307Z,1028.5
2016-12-05T07:05:17.743Z,1028.5
2016-12-05T07:06:18.666Z,1028.5
2016-12-05T07:07:20.095Z,1028.5
2016-12-05T07:08:21.020Z,1028.5
2016-12-05T07:09:22.455Z,1028.5
2016-12-05T07:10:23.514Z,1028.5
2016-12-05T07:11:24.945Z,1028.5
2016-12-05T07:12:25.877Z,1028.5
2016-12-05T07:13:27.308Z,1028.5
2016-12-05T07:14:28.297Z,1028.5
2016-12-05T07:15:29.733Z,1028.5
2016-12-05T07:16:30.656Z,1028.5
2016-12-05T07:17:32.096Z,1028.6
2016-12-05T07:18:33.025Z,1028.6
2016-12-05T07:19:34.452Z,1028.6
2016-12-05T07:20:35.874Z,1028.6
2016-12-05T07:21:36.802Z,1028.6
2016-12-05T07:22:38.229Z,1028.6
2016-12-05T07:23:39.156Z,1028.7
2016-12-05T07:24:40.581Z,1028.6
2016-12-05T07:25:41.508Z,1028.6
2016-12-05T07:26:42.936Z,1028.6
2016-12-05T07:27:43.863Z,1028.6
2016-12-05T07:28:45.294Z,1028.6
2016-12-05T07:30:47.622Z,1028.6
2016-12-05T07:31:49.051Z,1028.7
2016-12-05T07:32:49.975Z,1028.7
2016-12-05T07:33:51.400Z,1028.7
2016-12-05T07:34:52.325Z,1028.6
2016-12-05T07:35:53.748Z,1028.6
2016-12-05T07:36:54.680Z,1028.6
2016-12-05T07:37:56.112Z,1028.6
2016-12-05T07:38:57.545Z,1028.6
2016-12-05T07:39:58.472Z,1028.6
2016-12-05T07:40:59.903Z,1028.6
2016-12-05T07:42:00.833Z,1028.6
2016-12-05T07:43:02.266Z,1028.6
2016-12-05T07:44:03.333Z,1028.6
2016-12-05T07:45:04.762Z,1028.6
2016-12-05T07:46:05.687Z,1028.6
2016-12-05T07:47:07.146Z,1028.6
2016-12-05T07:48:08.078Z,1028.6
2016-12-05T07:49:09.512Z,1028.6
2016-12-05T07:50:10.439Z,1028.5
2016-12-05T07:52:13.269Z,1028.6
2016-12-05T07:53:14.190Z,1028.6
2016-12-05T07:54:15.626Z,1028.6
2016-12-05T07:55:16.554Z,1028.6
2016-12-05T07:56:17.988Z,1028.6
2016-12-05T07:58:20.314Z,1028.6
2016-12-05T07:59:21.272Z,1028.7
2016-12-05T08:00:22.708Z,1028.6
2016-12-05T08:01:24.132Z,1028.7
2016-12-05T08:02:25.056Z,1028.7
2016-12-05T08:03:26.493Z,1028.7
2016-12-05T08:04:27.423Z,1028.7
2016-12-05T08:05:28.867Z,1028.7
2016-12-05T08:06:29.796Z,1028.7
2016-12-05T08:07:31.235Z,1028.7
2016-12-05T08:08:32.167Z,1028.7
2016-12-05T08:09:33.594Z,1028.7
2016-12-05T08:10:35.029Z,1028.7
2016-12-05T08:11:35.955Z,1028.7
2016-12-05T08:12:37.381Z,1028.7
2016-12-05T08:13:38.312Z,1028.7
2016-12-05T08:14:39.744Z,1028.7
2016-12-05T08:15:40.767Z,1028.7
2016-12-05T08:16:42.206Z,1028.6
2016-12-05T08:17:43.132Z,1028.6
2016-12-05T08:19:45.953Z,1028.6
2016-12-05T08:20:46.881Z,1028.6
2016-12-05T08:21:48.315Z,1028.6
2016-12-05T08:22:49.242Z,1028.6
2016-12-05T08:23:50.670Z,1028.6
2016-12-05T08:24:51.597Z,1028.6
2016-12-05T08:25:53.028Z,1028.6
2016-12-05T08:26:54.453Z,1028.6
2016-12-05T08:27:55.377Z,1028.7
2016-12-05T08:28:56.803Z,1028.6
2016-12-05T08:29:57.733Z,1028.6
2016-12-05T08:30:59.167Z,1028.6
2016-12-05T08:32:00.596Z,1028.6
2016-12-05T08:33:01.520Z,1028.6
2016-12-05T08:34:02.953Z,1028.6
2016-12-05T08:35:03.888Z,1028.6
2016-12-05T08:36:05.324Z,1028.6
2016-12-05T08:37:06.388Z,1028.6
2016-12-05T08:38:07.816Z,1028.6
2016-12-05T08:39:08.743Z,1028.6
2016-12-05T08:40:10.173Z,1028.6
2016-12-05T08:41:11.109Z,1028.6
2016-12-05T08:42:12.535Z,1028.6
2016-12-05T08:43:13.974Z,1028.6
2016-12-05T08:45:16.299Z,1028.6
2016-12-05T08:46:17.225Z,1028.6
2016-12-05T08:47:18.715Z,1028.6
2016-12-05T08:48:19.646Z,1028.6
2016-12-05T08:49:21.083Z,1028.6
2016-12-05T08:50:22.518Z,1028.6
2016-12-05T08:51:23.445Z,1028.6
2016-12-05T08:52:24.881Z,1028.6
2016-12-05T08:53:25.808Z,1028.6
2016-12-05T08:54:27.236Z,1028.6
2016-12-05T08:55:28.165Z,1028.6
2016-12-05T08:56:29.600Z,1028.6
2016-12-05T08:57:31.031Z,1028.6
2016-12-05T08:58:31.966Z,1028.6
2016-12-05T08:59:33.395Z,1028.6
2016-12-05T09:00:34.316Z,1028.5
2016-12-05T09:01:35.750Z,1028.5
2016-12-05T09:02:37.183Z,1028.5
2016-12-05T09:03:38.113Z,1028.5
2016-12-05T09:04:39.543Z,1028.5
2016-12-05T09:05:40.469Z,1028.5
2016-12-05T09:06:41.905Z,1028.5
2016-12-05T09:07:42.836Z,1028.5
2016-12-05T09:08:44.264Z,1028.5
2016-12-05T09:09:45.700Z,1028.5
2016-12-05T09:10:46.821Z,1028.5
2016-12-05T09:11:47.745Z,1028.5
2016-12-05T09:12:49.177Z,1028.5
2016-12-05T09:13:50.606Z,1028.5
2016-12-05T09:14:51.528Z,1028.5
2016-12-05T09:15:52.956Z,1028.5
2016-12-05T09:16:53.887Z,1028.6
2016-12-05T09:17:55.326Z,1028.5
2016-12-05T09:18:56.755Z,1028.6
2016-12-05T09:19:57.811Z,1028.5
2016-12-05T09:20:59.237Z,1028.6
2016-12-05T09:22:00.163Z,1028.5
2016-12-05T09:23:01.593Z,1028.6
2016-12-05T09:24:02.656Z,1028.6
2016-12-05T09:25:04.083Z,1028.6
2016-12-05T09:26:05.011Z,1028.5
2016-12-05T09:28:07.345Z,1028.5
2016-12-05T09:29:08.779Z,1028.5
2016-12-05T09:30:10.209Z,1028.5
2016-12-05T09:31:11.134Z,1028.5
2016-12-05T09:32:12.560Z,1028.5
2016-12-05T09:33:13.487Z,1028.5
2016-12-05T09:35:16.312Z,1028.5
2016-12-05T09:36:17.239Z,1028.5
2016-12-05T09:37:18.672Z,1028.5
2016-12-05T09:38:19.747Z,1028.4
2016-12-05T09:39:21.187Z,1028.4
2016-12-05T09:40:22.112Z,1028.4
2016-12-05T09:41:23.543Z,1028.3
2016-12-05T09:42:24.970Z,1028.4
2016-12-05T09:43:25.897Z,1028.3
2016-12-05T09:44:27.332Z,1028.3
2016-12-05T09:45:28.254Z,1028.3
2016-12-05T09:47:31.091Z,1028.3
2016-12-05T09:48:32.023Z,1028.3
2016-12-05T09:49:33.454Z,1028.1
2016-12-05T09:51:35.775Z,1028.1
2016-12-05T09:52:37.209Z,1028.1
2016-12-05T09:53:38.132Z,1028.1
2016-12-05T09:54:39.560Z,1028.1
2016-12-05T09:55:40.990Z,1028.1
2016-12-05T09:56:41.917Z,1028.1
2016-12-05T09:57:43.341Z,1028.1
2016-12-05T09:58:44.277Z,1028
2016-12-05T10:00:47.109Z,1028
2016-12-05T10:01:48.038Z,1028
2016-12-05T10:02:49.466Z,1028.1
2016-12-05T10:03:50.390Z,1028.1
2016-12-05T10:04:51.850Z,1028.1
2016-12-05T10:06:54.174Z,1028
2016-12-05T10:07:55.607Z,1028
2016-12-05T10:08:56.532Z,1028
2016-12-05T10:09:57.956Z,1028
2016-12-05T10:10:59.387Z,1028
2016-12-05T10:12:00.318Z,1028
2016-12-05T10:13:01.759Z,1028
2016-12-05T10:14:02.688Z,1028
2016-12-05T10:15:04.119Z,1028
2016-12-05T10:16:05.553Z,1027.9
2016-12-05T10:17:06.480Z,1027.9
2016-12-05T10:18:07.914Z,1028
2016-12-05T10:19:09.341Z,1027.9
2016-12-05T10:20:10.268Z,1027.9
2016-12-05T10:21:11.700Z,1027.9
2016-12-05T10:22:12.626Z,1027.9
2016-12-05T10:23:14.057Z,1028
2016-12-05T10:24:15.487Z,1027.9
2016-12-05T10:26:17.814Z,1027.9
2016-12-05T10:27:18.992Z,1027.9
2016-12-05T10:28:20.428Z,1027.9
2016-12-05T10:29:21.348Z,1027.9
2016-12-05T10:30:22.776Z,1027.9
2016-12-05T10:31:23.704Z,1027.9
2016-12-05T10:32:25.306Z,1027.9
2016-12-05T10:33:26.238Z,1027.9
2016-12-05T10:34:27.672Z,1027.9
2016-12-05T10:35:29.104Z,1027.9
2016-12-05T10:36:30.035Z,1027.9
2016-12-05T10:37:31.460Z,1027.9
2016-12-05T10:38:32.392Z,1027.9
2016-12-05T10:39:33.830Z,1027.9
2016-12-05T10:41:36.165Z,1027.9
2016-12-05T10:42:37.599Z,1027.8
2016-12-05T10:43:39.029Z,1027.8
2016-12-05T10:44:39.952Z,1027.8
2016-12-05T10:45:41.380Z,1027.8
2016-12-05T10:46:42.339Z,1027.8
2016-12-05T10:47:43.769Z,1027.8
2016-12-05T10:48:45.199Z,1027.7
2016-12-05T10:49:46.198Z,1027.7
2016-12-05T10:50:47.265Z,1027.7
2016-12-05T10:51:48.893Z,1027.7
2016-12-05T10:52:49.819Z,1027.7
2016-12-05T10:53:51.246Z,1027.7
2016-12-05T10:54:52.178Z,1027.7
2016-12-05T10:55:53.633Z,1027.7
2016-12-05T10:56:55.070Z,1027.7
2016-12-05T10:57:56.126Z,1027.6
2016-12-05T10:58:57.564Z,1027.7
2016-12-05T10:59:58.489Z,1027.7
2016-12-05T11:01:00.061Z,1027.7
2016-12-05T11:02:00.999Z,1027.6
2016-12-05T11:03:02.429Z,1027.7
2016-12-05T11:04:03.352Z,1027.7
2016-12-05T11:05:04.775Z,1027.7
2016-12-05T11:06:06.202Z,1027.7
2016-12-05T11:07:07.150Z,1027.7
2016-12-05T11:08:08.585Z,1027.7
2016-12-05T11:09:10.016Z,1027.7
2016-12-05T11:10:10.949Z,1027.7
2016-12-05T11:11:12.398Z,1027.7
2016-12-05T11:12:13.324Z,1027.7
2016-12-05T11:13:14.925Z,1027.6
2016-12-05T11:15:17.252Z,1027.6
2016-12-05T11:16:18.325Z,1027.6
2016-12-05T11:17:19.753Z,1027.6
2016-12-05T11:18:21.188Z,1027.6
2016-12-05T11:19:22.125Z,1027.5
2016-12-05T11:20:23.255Z,1027.5
2016-12-05T11:21:24.681Z,1027.5
2016-12-05T11:22:26.109Z,1027.5
2016-12-05T11:23:27.039Z,1027.5
2016-12-05T11:24:28.476Z,1027.5
2016-12-05T11:25:29.903Z,1027.5
2016-12-05T11:26:30.834Z,1027.5
2016-12-05T11:27:32.263Z,1027.5
2016-12-05T11:28:33.699Z,1027.5
2016-12-05T11:29:34.632Z,1027.5
2016-12-05T11:30:36.058Z,1027.5
2016-12-05T11:31:36.984Z,1027.5
2016-12-05T11:32:38.481Z,1027.4
2016-12-05T11:33:39.909Z,1027.5
2016-12-05T11:34:40.838Z,1027.5
2016-12-05T11:35:42.264Z,1027.4
2016-12-05T11:36:43.696Z,1027.5
2016-12-05T11:37:44.616Z,1027.5
2016-12-05T11:38:46.048Z,1027.5
2016-12-05T11:39:46.979Z,1027.5
2016-12-05T11:40:48.402Z,1027.4
2016-12-05T11:41:49.834Z,1027.4
2016-12-05T11:42:50.755Z,1027.4
2016-12-05T11:43:52.185Z,1027.4
2016-12-05T11:44:53.617Z,1027.4
2016-12-05T11:45:54.544Z,1027.3
2016-12-05T11:46:55.971Z,1027.3
2016-12-05T11:47:57.397Z,1027.3
2016-12-05T11:48:58.324Z,1027.3
2016-12-05T11:49:59.753Z,1027.3
2016-12-05T11:51:01.178Z,1027.4
2016-12-05T11:52:02.109Z,1027.3
2016-12-05T11:53:03.544Z,1027.3
2016-12-05T11:55:05.877Z,1027.3
2016-12-05T11:56:07.311Z,1027.3
2016-12-05T11:57:08.742Z,1027.3
2016-12-05T11:58:09.669Z,1027.3
2016-12-05T11:59:11.113Z,1027.3
2016-12-05T12:00:12.045Z,1027.3
2016-12-05T12:01:13.479Z,1027.3
2016-12-05T12:02:14.905Z,1027.3
2016-12-05T12:03:15.826Z,1027.2
2016-12-05T12:04:17.259Z,1027.2
2016-12-05T12:05:18.693Z,1027.1
2016-12-05T12:06:19.621Z,1027.1
2016-12-05T12:07:21.046Z,1027.1
2016-12-05T12:08:22.477Z,1027.1
2016-12-05T12:09:23.408Z,1027.1
2016-12-05T12:10:24.840Z,1027.1
2016-12-05T12:11:26.305Z,1027.2
2016-12-05T12:12:27.231Z,1027.1
2016-12-05T12:13:28.664Z,1027.1
2016-12-05T12:14:30.091Z,1027.2
2016-12-05T12:15:31.013Z,1027.2
2016-12-05T12:16:32.578Z,1027.1
2016-12-05T12:17:33.537Z,1027.1
2016-12-05T12:18:34.967Z,1027.1
2016-12-05T12:19:35.891Z,1027.1
2016-12-05T12:20:37.322Z,1027.1
2016-12-05T12:21:38.755Z,1027.1
2016-12-05T12:22:39.706Z,1027.1
2016-12-05T12:23:41.135Z,1027.1
2016-12-05T12:25:43.469Z,1027.1
2016-12-05T12:26:44.908Z,1027.1
2016-12-05T12:27:46.419Z,1027
2016-12-05T12:28:47.341Z,1027
2016-12-05T12:29:48.769Z,1027
2016-12-05T12:30:50.199Z,1027
2016-12-05T12:32:52.524Z,1027
2016-12-05T12:33:53.952Z,1026.9
2016-12-05T12:34:54.880Z,1026.9
2016-12-05T12:35:56.312Z,1026.9
2016-12-05T12:36:57.750Z,1027
2016-12-05T12:39:00.283Z,1026.9
2016-12-05T12:41:02.615Z,1026.9
2016-12-05T12:42:04.046Z,1026.9
2016-12-05T12:43:04.970Z,1026.9
2016-12-05T12:44:06.401Z,1026.9
2016-12-05T12:45:07.829Z,1026.9
2016-12-05T12:46:08.785Z,1026.8
2016-12-05T12:47:10.220Z,1026.9
2016-12-05T12:48:11.660Z,1026.8
2016-12-05T12:49:12.586Z,1026.9
2016-12-05T12:50:14.020Z,1026.8
2016-12-05T12:51:15.447Z,1026.9
2016-12-05T12:52:16.375Z,1026.9
2016-12-05T12:53:17.801Z,1026.8
2016-12-05T12:54:19.227Z,1026.9
2016-12-05T12:56:21.550Z,1026.8
2016-12-05T12:57:22.987Z,1026.8
2016-12-05T12:58:23.912Z,1026.8
2016-12-05T12:59:25.346Z,1026.8
2016-12-05T13:00:26.773Z,1026.8
2016-12-05T13:01:27.696Z,1026.8
2016-12-05T13:02:29.123Z,1026.8
2016-12-05T13:03:30.557Z,1026.8
2016-12-05T13:04:31.485Z,1026.9
2016-12-05T13:05:32.907Z,1026.9
2016-12-05T13:06:34.339Z,1026.9
2016-12-05T13:08:36.803Z,1026.9
2016-12-05T13:09:37.745Z,1026.8
2016-12-05T13:12:41.979Z,1026.8
2016-12-05T13:13:42.915Z,1026.9
2016-12-05T13:14:44.343Z,1026.8
2016-12-05T13:15:45.776Z,1026.8
2016-12-05T13:16:46.708Z,1026.8
2016-12-05T13:17:48.137Z,1026.8
2016-12-05T13:18:49.565Z,1026.8
2016-12-05T13:20:51.890Z,1026.8
2016-12-05T13:21:53.322Z,1026.7
2016-12-05T13:22:54.265Z,1026.8
2016-12-05T13:23:55.699Z,1026.8
2016-12-05T13:24:57.125Z,1026.7
2016-12-05T13:25:58.049Z,1026.7
2016-12-05T13:26:59.476Z,1026.8
2016-12-05T13:28:00.909Z,1026.8
2016-12-05T13:29:01.833Z,1026.8
2016-12-05T13:30:03.406Z,1026.8
2016-12-05T13:31:04.333Z,1026.8
2016-12-05T13:32:05.766Z,1026.8
2016-12-05T13:33:07.192Z,1026.8
2016-12-05T13:34:08.112Z,1026.7
2016-12-05T13:35:09.536Z,1026.7
2016-12-05T13:36:10.971Z,1026.7
2016-12-05T13:37:11.899Z,1026.8